Weather observations for the past three days for
Reedsburg Municipal Airport
Imperial (Metric)
Date Time (cdt) Wind (mph) Vis. (mi.) Weather Sky Cond. Temperature (ºF) Relative Humidity Wind Chill (°F) Heat Index (°F) Pressure Precipitation (in)
Air Dwpt 6 hour altimeter (in) sea level (mb) 1 hr 3 hr 6 hr
Max. Min.
31 00:35 SE 3 10.00 Partly Cloudy SCT085 68.9 67.8 96% 29.91 0.0
31 00:15 SE 5 10.00 Fair CLR 68.2 67.1 96% 29.92 0.0
30 23:55 E 3 7.00 Fair CLR 68.2 67.1 96% 29.92 0.0
30 23:35 E 5 5.00 Fair CLR 68.2 67.1 96% 29.92 0.0
30 23:15 Calm 5.00 Fair CLR 68.7 67.5 96% 29.93 0.0
30 22:55 Calm 7.00 Fair CLR 69.1 68 96% 29.94 0.0
30 22:35 Calm 10.00 Fair CLR 69.6 68.5 96% 29.95 0.0
30 22:15 Calm 10.00 Fair CLR 70.2 69.1 96% 29.95 0.0
30 21:55 Calm 10.00 Fair CLR 70.2 69.1 96% 29.95 0.0 0.02
30 21:35 Calm 10.00 Partly Cloudy SCT120 70.7 69.8 97% 29.94 0.0
30 21:15 Calm 10.00 Mostly Cloudy BKN120 72 70.9 96% 29.94 0.0
30 20:55 Calm 10.00 Overcast OVC120 72.1 71.1 96% 29.93 0.0 0.02
30 20:35 Calm 10.00 Overcast SCT046 SCT065 OVC120 71.8 70.7 96% 29.91 0.0 0.02
30 20:15 E 7 5.00 Mostly Cloudy SCT046 SCT075 BKN100 72.7 71.6 96% 29.87 0.0 0.01
30 19:55 Calm 10.00 Fair CLR 73.2 71.4 94% 29.89 0.0
30 19:35 SE 3 10.00 Fair CLR 73.6 72 95% 29.89 0.0
30 19:15 S 3 10.00 Fair CLR 73.9 71.1 91% 29.9 0.0
30 18:55 Calm 10.00 Fair CLR 74.3 70.2 79.7 74.3 87% 29.89 0.0
30 18:35 SE 3 10.00 Fair CLR 75.2 69.4 82% 76 29.89 0.0
30 18:15 S 5 10.00 Fair CLR 75.4 69.1 81% 76 29.89 0.0
30 17:55 S 5 10.00 Fair CLR 75.9 68.7 78% 77 29.9 0.0
30 17:35 S 7 10.00 Fair CLR 76.6 68.9 77% 78 29.89 0.0
30 17:15 S 3 10.00 Fair CLR 78.1 69.3 74% 80 29.88 0.0
30 16:55 S 8 10.00 Fair CLR 78.1 68.5 73% 80 29.89 0.0
30 16:35 S 6 10.00 Fair CLR 78.1 68.5 73% 80 29.89 0.0
30 16:15 S 7 10.00 Fair CLR 78.3 68.4 72% 80 29.89 0.0
30 15:55 S 6 10.00 Fair CLR 77.9 68.2 72% 80 29.89 0.0
30 15:35 S 8 10.00 Fair CLR 78.1 68 71% 80 29.89 0.0
30 15:15 S 8 10.00 Fair CLR 78.1 67.6 70% 80 29.89 0.0
30 14:55 S 7 10.00 Fair CLR 78.1 67.6 70% 80 29.89 0.0
30 14:35 S 7 10.00 Fair CLR 77.9 67.1 70% 80 29.9 0.0
30 14:15 S 6 10.00 Fair CLR 78.1 66.4 67% 80 29.89 0.0
30 13:55 S 3 10.00 Fair CLR 77.9 65.7 66% 80 29.89 0.0
30 13:35 SW 8 10.00 Fair CLR 78.1 65.5 65% 80 29.91 0.0
30 13:15 SW 13 G 18 10.00 Fair CLR 78.6 65.5 64% 81 29.92 0.0
30 12:55 SW 14 G 17 10.00 Fair CLR 79.7 66.7 81.7 69.8 65% 82 29.92 0.0
30 12:35 SW 7 10.00 Fair CLR 78.8 66 65% 81 29.92 0.0
30 12:15 SW 8 G 16 10.00 Fair CLR 78.4 65.8 65% 80 29.9 0.0
30 11:55 SW 12 10.00 Fair CLR 79.9 65.5 62% 82 29.88 0.0
30 11:35 SW 8 10.00 Fair CLR 81.5 66.9 61% 84 29.88 0.0
30 11:15 S 8 10.00 Fair CLR 81.1 66 60% 83 29.88 0.0
30 10:55 S 10 G 16 10.00 Fair CLR 80.8 65.8 61% 83 29.88 0.0
30 10:35 S 8 10.00 Fair CLR 80.1 66.2 63% 82 29.88 0.0
30 10:15 SW 6 10.00 Fair CLR 78.8 65.5 64% 81 29.88 0.0
30 09:55 S 8 10.00 Fair CLR 78.3 65.5 65% 80 29.87 0.0
30 09:35 S 6 10.00 Fair CLR 76.8 64.6 66% 79 29.88 0.0
30 09:15 S 5 10.00 Fair CLR 76.1 63.9 66% 78 29.88 0.0
30 08:55 SW 3 10.00 Fair CLR 74.8 63.9 69% 29.87 0.0
30 08:35 S 5 10.00 Fair CLR 74.1 63.5 70% 29.87 0.0
30 08:15 S 5 10.00 Fair CLR 73.6 63.3 70% 29.88 0.0
30 07:55 S 6 10.00 Fair CLR 72 62.8 73% 29.88 0.0
30 07:35 S 7 10.00 Fair CLR 71.6 62.6 73% 29.88 0.0
30 07:15 Calm 10.00 Fair CLR 70.9 62.6 75% 29.88 0.0
30 06:55 S 5 10.00 Fair CLR 70 62.6 72.7 68.5 78% 29.88 0.0
30 06:35 Calm 10.00 Fair CLR 69.3 62.8 80% 29.87 0.0
30 06:15 Calm 10.00 Fair CLR 69.4 63.3 81% 29.88 0.0
30 05:55 Calm 10.00 Fair CLR 69.3 64 84% 29.88 0.0
30 05:35 Calm 10.00 Fair CLR 68.5 64.8 88% 29.88 0.0
30 05:15 Calm 10.00 Fair CLR 70.3 63.5 79% 29.88 0.0
30 04:55 Calm 10.00 Partly Cloudy SCT085 70.7 63.5 78% 29.88 0.0
30 04:35 Calm 10.00 Mostly Cloudy BKN085 71.4 63.5 76% 29.88 0.0
30 04:15 Calm 10.00 Overcast OVC085 71.4 63.9 77% 29.89 0.0
30 03:55 Calm 10.00 Overcast OVC085 72 63.7 75% 29.89 0.0
30 03:35 Calm 10.00 Overcast OVC075 72.1 64 76% 29.89 0.0
30 03:15 Calm 10.00 Overcast OVC075 72.5 63.9 74% 29.89 0.0
30 02:55 Calm 10.00 Overcast BKN075 OVC085 72.7 63.9 74% 29.89 0.0
30 02:35 S 5 10.00 Overcast OVC085 72.1 64 76% 29.89 0.0
30 02:15 Calm 10.00 Overcast BKN070 OVC085 71.6 64.4 78% 29.9 0.0
30 01:55 Calm 10.00 Overcast OVC070 71.2 64.4 79% 29.91 0.0
30 01:35 Calm 10.00 Overcast BKN070 OVC080 71.1 64.4 80% 29.91 0.0
30 01:15 Calm 10.00 Overcast BKN070 OVC080 71.1 64.4 80% 29.92 0.0
30 00:55 Calm 10.00 Mostly Cloudy BKN070 70.9 64.4 73.8 70.2 80% 29.92 0.0 0.01
30 00:35 Calm 10.00 Fair CLR 70.7 64.4 81% 29.93 0.0
30 00:15 Calm 10.00 Fair CLR 70.9 64.4 80% 29.93 0.0
29 23:55 Calm 10.00 Fair CLR 70.7 64.4 81% 29.93 0.0
29 23:35 S 3 10.00 Fair CLR 71.1 64.2 79% 29.94 0.0
29 23:15 Calm 10.00 Fair CLR 70.7 64.4 81% 29.93 0.0
29 22:55 Calm 10.00 Fair CLR 70.7 64.4 81% 29.94 0.0
29 22:35 Calm 10.00 Partly Cloudy SCT120 70.7 64.4 81% 29.94 0.0
29 22:15 Calm 10.00 Fair CLR 70.5 64.2 81% 29.94 0.0
29 21:55 Calm 10.00 Fair CLR 70.7 64.4 81% 29.94 0.0 0.01
29 21:35 Calm 10.00 Fair CLR 70.2 64.4 82% 29.94 0.0
29 21:15 Calm 10.00 Fair CLR 70.7 64.4 81% 29.94 0.0
29 20:55 Calm 10.00 Fair CLR 71.6 64.4 78% 29.93 0.0
29 20:35 Calm 10.00 Fair CLR 71.8 64 77% 29.93 0.0
29 20:15 Calm 10.00 Fair CLR 72.1 64 76% 29.92 0.0
29 19:55 S 5 10.00 Fair CLR 71.8 63.9 76% 29.91 0.0 0.01
29 19:35 S 6 10.00 Fair CLR 72.9 63.7 73% 29.9 0.0 0.01
29 19:15 S 7 10.00 Fair CLR 73.4 63.5 71% 29.91 0.0 0.01
29 18:35 S 7 10.00 Fair CLR 73.6 62.8 69% 29.91 0.0
29 18:15 S 7 G 16 10.00 Fair CLR 75.2 63 66% 77 29.91 0.0
29 17:55 S 9 G 16 10.00 Fair CLR 76.3 63.3 64% 78 29.91 0.0 0.01
29 17:35 S 8 G 18 10.00 Fair CLR 75.2 63.7 68% 77 29.91 0.0 0.01
29 17:15 S 9 G 21 10.00 Fair CLR 73.9 63.7 70% 29.92 0.0 0.01
29 16:55 S 14 G 24 10.00 Fair CLR 74.8 63.1 67% 29.92 0.0
29 16:35 S 14 G 20 10.00 Fair CLR 74.7 65.5 73% 29.93 0.0
29 16:15 S 14 G 20 10.00 Mostly Cloudy BKN100 74.1 67.5 80% 29.94 0.0
29 15:55 S 10 G 20 10.00 Overcast OVC100 73 68 84% 29.95 0.0 0.01 0.02
29 15:35 SE 9 10.00 Overcast OVC100 72.5 69.1 89% 29.96 0.0 0.01
29 15:15 SE 7 10.00 Overcast OVC100 70.3 69.1 96% 29.97 0.0 0.01
29 14:55 SE 6 10.00 Overcast OVC090 67.8 66.6 96% 29.99 0.0
29 14:35 SE 5 10.00 Overcast SCT024 SCT044 OVC090 67.3 66.2 96% 30.02 0.0
29 14:15 E 5 10.00 Overcast SCT070 BKN080 OVC100 67.6 66.6 96% 30.03 0.0
29 13:55 E 5 10.00 Overcast SCT070 OVC100 67.6 66.6 96% 30.04 0.0 0.01
29 13:35 Calm 10.00 Overcast SCT080 BKN090 OVC110 68.2 67.3 97% 30.04 0.0
29 13:15 SW 6 7.00 Overcast SCT080 OVC090 68.9 67.6 96% 30.05 0.0
29 12:55 S 7 10.00 Overcast OVC100 69.4 66.9 70.9 65.3 92% 30.05 0.0 0.02
29 12:35 S 9 10.00 Overcast OVC110 70.3 66.2 87% 30.05 0.0
29 12:15 S 10 10.00 Overcast OVC110 70.3 65.8 86% 30.04 0.0
29 11:55 S 6 10.00 Overcast SCT080 OVC110 68.9 66 91% 30.04 0.0
29 11:35 S 8 10.00 Overcast SCT080 OVC110 67.5 66.2 96% 30.06 0.0
29 11:15 S 8 10.00 Mostly Cloudy BKN110 67.1 65.7 95% 30.07 0.0
29 10:55 S 9 10.00 Mostly Cloudy SCT100 BKN120 66.9 65.8 96% 30.08 0.0 0.01
29 10:35 S 6 10.00 Overcast BKN100 OVC120 65.8 64.8 96% 30.09 0.0 0.01
29 10:15 Calm 10.00 Overcast OVC100 65.5 64.4 96% 30.09 0.0 0.01
29 09:55 Calm 10.00 Overcast SCT046 OVC100 65.3 64.4 97% 30.09 0.0 0.01 0.01
29 09:35 Calm 10.00 Overcast SCT049 OVC090 65.7 64.4 96% 30.1 0.0 0.01
29 09:15 SW 5 10.00 Overcast OVC100 66.2 62.4 88% 30.11 0.0
29 08:55 SW 5 10.00 Mostly Cloudy SCT048 BKN110 66.2 61 83% 30.11 0.0
29 08:35 SW 6 10.00 Fair CLR 66.2 60.1 81% 30.1 0.0
29 08:15 SW 3 10.00 Partly Cloudy SCT090 65.5 60.3 83% 30.1 0.0
29 07:55 SW 5 10.00 Overcast OVC080 65.5 59.9 82% 30.1 0.0
29 07:35 S 3 10.00 Overcast OVC090 65.7 59.9 82% 30.1 0.0
29 07:15 SW 5 10.00 Overcast OVC090 65.5 59.7 82% 30.1 0.0
29 06:55 SW 5 10.00 Mostly Cloudy BKN090 65.3 59.7 65.3 57 82% 30.1 0.0
29 06:35 SW 3 10.00 Partly Cloudy SCT080 65.3 60.3 84% 30.09 0.0
29 06:15 SW 3 10.00 Fair CLR 64.4 61.5 90% 30.09 0.0
29 05:55 Calm 10.00 Fair CLR 63.7 60.8 90% 30.08 0.0
29 05:35 Calm 10.00 Fair CLR 63.5 59.2 86% 30.08 0.0
29 05:15 Calm 10.00 Fair CLR 63.9 60.8 90% 30.08 0.0
29 04:55 Calm 10.00 Fair CLR 62.4 61 95% 30.07 0.0
29 04:35 Calm 10.00 Fair CLR 59.5 58.5 96% 30.07 0.0
29 04:15 Calm 10.00 Fair CLR 59.9 58.8 96% 30.09 0.0
29 03:55 Calm 10.00 Fair CLR 59.2 58.1 96% 30.08 0.0
29 03:35 Calm 10.00 Fair CLR 59.5 58.5 96% 30.1 0.0
29 03:15 Calm 10.00 Fair CLR 57.2 55.9 96% 30.08 0.0
29 02:55 Calm 10.00 Fair CLR 57.7 56.7 96% 30.07 0.0
29 02:35 Calm 10.00 Fair CLR 57.6 56.5 96% 30.09 0.0
29 02:15 Calm 10.00 Fair CLR 58.1 57.2 97% 30.08 0.0
29 01:55 Calm 10.00 Fair CLR 57.4 56.3 96% 30.09 0.0
29 01:35 Calm 7.00 Fair CLR 57.6 56.7 97% 30.09 0.0
29 01:15 Calm 10.00 Fair CLR 58.1 57 96% 30.09 0.0
29 00:55 Calm 10.00 Fair CLR 58.5 57.4 73.4 58.3 96% 30.09 0.0
29 00:35 Calm 10.00 Fair CLR 59.2 58.1 96% 30.09 0.0
29 00:15 Calm 10.00 Fair CLR 58.8 57.6 96% 30.09 0.0
28 23:55 Calm 10.00 Fair CLR 59.9 58.6 96% 30.1 0.0
28 23:35 Calm 10.00 Fair CLR 59.4 58.3 96% 30.1 0.0
28 23:10 Calm 10.00 Fair CLR 60.6 59.5 96% 30.1 0.0
28 22:55 Calm 10.00 Fair CLR 60.6 59.5 96% 30.09 0.0
28 22:35 Calm 10.00 Fair CLR 62.4 61.3 96% 30.09 0.0
28 22:15 Calm 10.00 Fair CLR 63.1 62.1 96% 30.1 0.0
28 21:55 Calm 10.00 Fair CLR 63.9 62.8 96% 30.1 0.0
28 21:35 Calm 10.00 Fair CLR 65.7 61 85% 30.09 0.0
28 21:15 Calm 10.00 Fair CLR 66 60.3 82% 30.09 0.0
28 20:55 Calm 10.00 Fair CLR 67.3 59.5 76% 30.09 0.0
28 20:35 Calm 10.00 Fair CLR 68.5 59 72% 30.09 0.0
28 20:15 Calm 10.00 Fair CLR 68.7 58.3 69% 30.09 0.0
28 19:55 Calm 10.00 Fair CLR 70.3 57.9 65% 30.09 0.0
28 19:35 Calm 10.00 Fair CLR 71.1 58.3 64% 30.08 0.0
28 19:15 Calm 10.00 Fair CLR 72.1 58.8 63% 30.08 0.0
28 18:55 S 3 10.00 Fair CLR 73.6 58.5 81.5 73.6 59% 30.08 0.0
28 18:35 S 3 10.00 Fair CLR 74.5 58.6 58% 30.09 0.0
28 18:15 Calm 10.00 Fair CLR 75.9 59 56% 78 30.09 0.0
28 17:55 SW 3 10.00 Fair CLR 76.5 54.1 46% 78 30.09 0.0
28 17:35 SW 7 10.00 Fair CLR 77.7 55.4 46% 79 30.1 0.0
28 17:15 SW 6 10.00 Fair CLR 79.7 56.8 46% 80 30.09 0.0
28 16:55 SW 5 10.00 Fair CLR 79.5 54.3 42% 80 30.09 0.0
28 16:30 SW 5 10.00 Fair CLR 80.8 54.9 41% 81 30.09 0.0
28 16:10 SW 3 10.00 Partly Cloudy SCT055 80.8 54.1 40% 80 30.09 0.0
28 15:55 SW 6 10.00 Partly Cloudy SCT055 80.4 54.9 41% 80 30.09 0.0
28 15:35 Calm 10.00 Fair CLR 79.2 56.1 45% 80 30.1 0.0
28 15:15 W 8 10.00 Partly Cloudy SCT050 80.2 56.1 44% 80 30.1 0.0
28 14:55 SW 7 10.00 Partly Cloudy SCT050 81.1 56.7 43% 81 30.11 0.0
28 14:35 SW 5 10.00 Partly Cloudy SCT050 79.3 56.8 46% 80 30.12 0.0
28 14:15 S 8 10.00 Partly Cloudy SCT050 80.4 57 45% 81 30.12 0.0
28 13:55 SW 9 10.00 Partly Cloudy SCT050 SCT055 79.2 57.4 47% 80 30.13 0.0
28 13:35 SW 7 10.00 Partly Cloudy SCT055 79.7 55.6 44% 80 30.13 0.0
28 13:15 SW 8 G 17 10.00 Partly Cloudy SCT055 80.1 57 45% 80 30.13 0.0
28 12:55 SW 7 10.00 Partly Cloudy SCT055 80.8 56.8 80.8 56.5 44% 81 30.13 0.0
28 12:35 SW 6 10.00 Mostly Cloudy BKN049 BKN060 80.4 57.2 45% 81 30.14 0.0
28 12:15 W 7 10.00 Partly Cloudy SCT047 78.3 58.8 51% 79 30.15 0.0
28 11:55 SW 6 10.00 Fair CLR 78.8 58.6 50% 80 30.14 0.0
28 11:35 SW 7 10.00 Fair CLR 78.3 58.5 51% 79 30.15 0.0
28 11:15 W 7 10.00 Fair CLR 77.4 59 53% 79 30.15 0.0
28 10:55 W 8 10.00 Fair CLR 76.8 59.4 55% 79 30.15 0.0
28 10:35 W 7 10.00 Fair CLR 76.1 59.4 56% 78 30.15 0.0
28 10:15 Calm 10.00 Fair CLR 73.9 61.9 66% 30.15 0.0
28 09:55 Calm 10.00 Fair CLR 72.5 61.7 69% 30.15 0.0
28 09:35 Calm 10.00 Fair CLR 70.7 61.5 73% 30.15 0.0
28 09:15 Calm 10.00 Fair CLR 68.9 63.5 83% 30.15 0.0
28 08:55 Calm 10.00 Fair CLR 67.1 63.3 88% 30.15 0.0
28 08:35 Calm 10.00 Fair CLR 65.3 62.4 90% 30.15 0.0
28 08:15 Calm 10.00 Fair CLR 64.6 62.4 93% 30.14 0.0
28 07:55 Calm 10.00 Fair CLR 62.2 61.2 96% 30.14 0.0
28 07:35 Calm 10.00 Fair CLR 59.9 59 97% 30.14 0.0
28 07:15 Calm 10.00 Fair CLR 58.1 57.2 97% 30.14 0.0
28 06:55 Calm 10.00 Fair CLR 56.3 55.4 60.1 55.2 97% 30.14 0.0
28 06:35 Calm 10.00 Fair CLR 56.3 55.4 97% 30.13 0.0
28 06:15 Calm 10.00 Fair CLR 56.3 55.2 96% 30.13 0.0
28 05:55 Calm 10.00 Fair CLR 57 56.1 97% 30.12 0.0
28 05:35 Calm 10.00 Fair CLR 56.8 55.8 96% 30.11 0.0
28 05:15 Calm 10.00 Fair CLR 57.2 56.3 97% 30.1 0.0
28 04:55 Calm 10.00 Fair CLR 57.6 56.7 97% 30.11 0.0
28 04:35 Calm 10.00 Partly Cloudy SCT065 57 56.1 97% 30.1 0.0
28 04:15 Calm 10.00 Mostly Cloudy BKN065 57.9 56.8 96% 30.1 0.0
28 03:55 Calm 10.00 Overcast OVC065 58.5 57.4 96% 30.1 0.0
28 03:35 Calm 10.00 Overcast OVC065 59.4 58.5 97% 30.09 0.0
28 03:15 Calm 10.00 Overcast OVC065 58.6 57.6 96% 30.09 0.0
28 02:55 Calm 10.00 Partly Cloudy SCT065 58.6 57.6 96% 30.09 0.0
28 02:35 Calm 10.00 Mostly Cloudy SCT065 BKN070 59.4 58.5 97% 30.09 0.0
28 02:15 Calm 10.00 Mostly Cloudy BKN065 BKN070 59.2 58.1 96% 30.09 0.0
28 01:55 Calm 10.00 Partly Cloudy SCT065 59.2 58.1 96% 30.09 0.0
28 01:35 Calm 10.00 Fair CLR 59.9 58.8 96% 30.09 0.0
28 01:15 Calm 10.00 Partly Cloudy SCT060 59.9 58.8 96% 30.08 0.0
28 00:55 Calm 10.00 Partly Cloudy SCT060 60.1 59 76.1 59.9 96% 30.08 0.0
Date Time (cdt) Wind (mph) Vis. (mi.) Weather Sky Cond. Air Dwpt Max. Min. Relative Humidity Wind Chill (°F) Heat Index (°F) altimeter (in) sea level (mb) 1 hr 3 hr 6 hr
6 hour
Temperature (ºF) Pressure Precipitation (in)